Time;durP1;ratioP1;P1;durP2;ratioP2;P2;SDS_P1;SDS_P2;PMS_P1;PMS_P2;Temp;Humidity;BMP_temperature;BMP_pressure;BME280_temperature;BME280_humidity;BME280_pressure;Samples;Min_cycle;Max_cycle;Signal;HPM_P1;HPM_P2
2019/04/09 00:04:21;;;;;;;23.5;21;;;;;;;9.91;80.97461;953.6089;;;;
2019/04/09 00:09:11;;;;;;;23.4;20.6;;;;;;;9.78;81.61914;953.5422;;;;
2019/04/09 00:11:37;;;;;;;25.5;22.5;;;;;;;9.78;81.57129;953.5595;;;;
2019/04/09 00:14:02;;;;;;;25.8;22.4;;;;;;;9.81;81.30078;953.5778;;;;
2019/04/09 00:16:28;;;;;;;23.1;20.6;;;;;;;9.85;81.34375;953.5854;;;;
2019/04/09 00:18:53;;;;;;;24.3;21.2;;;;;;;9.84;81.18066;953.489;;;;
2019/04/09 00:21:19;;;;;;;24.7;22.1;;;;;;;9.71;81.99707;953.4651;;;;
2019/04/09 00:23:44;;;;;;;26.1;22.7;;;;;;;9.56;83.43066;953.452;;;;
2019/04/09 00:26:10;;;;;;;27.4;23.8;;;;;;;9.48;83.91992;953.423;;;;
2019/04/09 00:28:37;;;;;;;27.5;24.2;;;;;;;9.29;85.49414;953.3419;;;;
2019/04/09 00:31:02;;;;;;;32.6;28.3;;;;;;;9.06;88.04883;953.2856;;;;
2019/04/09 00:33:27;;;;;;;37.9;31.2;;;;;;;8.95;90.44141;953.2681;;;;
2019/04/09 00:35:53;;;;;;;41.8;31.4;;;;;;;8.96;90.77441;953.2505;;;;
2019/04/09 00:38:19;;;;;;;48.2;35.5;;;;;;;8.92;92.13477;953.2378;;;;
2019/04/09 00:40:44;;;;;;;41.2;33.4;;;;;;;8.85;92.24609;953.3384;;;;
2019/04/09 00:43:11;;;;;;;46.1;36.2;;;;;;;8.78;92.40332;953.3167;;;;
2019/04/09 00:45:36;;;;;;;60.5;44.4;;;;;;;8.79;94.4873;953.3834;;;;
2019/04/09 00:48:02;;;;;;;55.3;42.4;;;;;;;8.77;94.43457;953.4196;;;;
2019/04/09 00:50:27;;;;;;;53.2;38.8;;;;;;;8.82;94.90625;953.4647;;;;
2019/04/09 00:52:53;;;;;;;52.1;39.1;;;;;;;8.74;93.69336;953.3845;;;;
2019/04/09 00:55:19;;;;;;;62.4;44.7;;;;;;;8.73;94.96484;953.4373;;;;
2019/04/09 00:57:45;;;;;;;67.2;46.3;;;;;;;8.69;94.85352;953.3649;;;;
2019/04/09 01:00:10;;;;;;;58.6;42.4;;;;;;;8.71;94.41211;953.3702;;;;
2019/04/09 01:02:37;;;;;;;70;47.6;;;;;;;8.66;95.10059;953.3808;;;;
2019/04/09 01:05:06;;;;;;;68.8;47.7;;;;;;;8.63;95.15234;953.358;;;;
2019/04/09 01:07:40;;;;;;;58.3;41.6;;;;;;;8.72;95.37891;953.3951;;;;
2019/04/09 01:10:06;;;;;;;61.4;43.3;;;;;;;8.67;94.94238;953.3624;;;;
2019/04/09 01:12:31;;;;;;;70.1;46;;;;;;;8.61;95.36426;953.377;;;;
2019/04/09 01:14:56;;;;;;;58.2;41.5;;;;;;;8.67;95.36914;953.383;;;;
2019/04/09 01:17:21;;;;;;;61.6;41.7;;;;;;;8.66;95.10059;953.4182;;;;
2019/04/09 01:19:47;;;;;;;58.6;42;;;;;;;8.7;95.56836;953.4317;;;;
2019/04/09 01:22:12;;;;;;;85.7;53.7;;;;;;;8.5;95.99512;953.4363;;;;
2019/04/09 01:24:43;;;;;;;74.6;48.6;;;;;;;8.54;96.02637;953.4617;;;;
2019/04/09 01:27:09;;;;;;;98.7;56.8;;;;;;;8.54;96.98145;953.4611;;;;
2019/04/09 01:36:57;;;;;;;66.1;46.7;;;;;;;8.47;95.74805;953.4261;;;;
2019/04/09 01:39:27;;;;;;;60.4;41.9;;;;;;;8.52;95.57617;953.3996;;;;
2019/04/09 01:41:48;;;;;;;59.2;41.9;;;;;;;8.49;95.13184;953.3047;;;;
2019/04/09 01:44:11;;;;;;;56.5;42.4;;;;;;;8.55;95.1709;953.3365;;;;
2019/04/09 01:46:39;;;;;;;47;37.3;;;;;;;8.58;94.77246;953.334;;;;
2019/04/09 01:50:12;;;;;;;49.8;38.7;;;;;;;8.55;95.28418;953.2816;;;;
2019/04/09 01:53:52;;;;;;;55.4;41.8;;;;;;;8.55;95.08887;953.3326;;;;
2019/04/09 01:58:43;;;;;;;63.1;45.4;;;;;;;8.51;95.125;953.222;;;;
2019/04/09 02:01:14;;;;;;;66;47;;;;;;;8.39;95.56934;953.18;;;;
2019/04/09 02:03:34;;;;;;;51.7;40;;;;;;;8.53;95.22266;953.233;;;;
2019/04/09 02:08:29;;;;;;;94.8;57;;;;;;;8.45;96.36426;953.1136;;;;
2019/04/09 02:10:59;;;;;;;77.9;51.4;;;;;;;8.41;96.45605;953.093;;;;
2019/04/09 02:15:47;;;;;;;59.4;44.9;;;;;;;8.48;95.7959;953.077;;;;
2019/04/09 02:22:58;;;;;;;68.8;49.7;;;;;;;8.41;96.16895;953.0884;;;;
2019/04/09 02:37:30;;;;;;;66.2;47.5;;;;;;;8.33;96.02637;953.0629;;;;
2019/04/09 02:44:45;;;;;;;59.6;44.9;;;;;;;8.4;95.20605;953.0715;;;;
2019/04/09 02:49:48;;;;;;;74.8;51.5;;;;;;;8.35;96.2832;953.0858;;;;
2019/04/09 03:04:10;;;;;;;69.3;48.5;;;;;;;8.31;95.8252;953.1035;;;;
2019/04/09 03:06:32;;;;;;;62.4;44.4;;;;;;;8.34;96.2373;953.0826;;;;
2019/04/09 03:09:10;;;;;;;53.3;41.4;;;;;;;8.31;96.01074;953.0222;;;;
2019/04/09 03:11:26;;;;;;;67.4;49;;;;;;;8.36;96.31934;953.0172;;;;
2019/04/09 03:18:40;;;;;;;75.2;52.3;;;;;;;8.3;96.71875;953.0151;;;;
2019/04/09 03:21:11;;;;;;;82.5;54.4;;;;;;;8.37;96.9668;953.0464;;;;
2019/04/09 03:25:56;;;;;;;71.2;50.3;;;;;;;8.48;96.58887;953.0985;;;;
2019/04/09 03:28:21;;;;;;;74.3;52.4;;;;;;;8.45;96.50195;953.0587;;;;
2019/04/09 03:30:53;;;;;;;82.9;55;;;;;;;8.36;96.4248;953.0761;;;;
2019/04/09 03:38:02;;;;;;;65.5;46;;;;;;;8.27;96.4834;953.0055;;;;
2019/04/09 03:40:27;;;;;;;81.2;55.2;;;;;;;8.2;96.44434;952.9709;;;;
2019/04/09 03:45:18;;;;;;;74.5;49.4;;;;;;;8.24;96.35059;952.9659;;;;
2019/04/09 03:50:09;;;;;;;67.2;47.5;;;;;;;8.28;96.88867;953.0424;;;;
2019/04/09 03:55:05;;;;;;;85.7;55.4;;;;;;;8.32;97.28711;952.9785;;;;
2019/04/09 04:07:27;;;;;;;103;61.8;;;;;;;8.32;96.58691;952.8981;;;;
2019/04/09 04:10:00;;;;;;;68.8;48.3;;;;;;;8.42;96.62012;952.9562;;;;
2019/04/09 04:12:33;;;;;;;74.8;50.7;;;;;;;8.36;97.44434;952.8516;;;;
2019/04/09 04:14:45;;;;;;;76.5;52.1;;;;;;;8.37;97.3916;952.9102;;;;
2019/04/09 04:17:11;;;;;;;74.7;50.6;;;;;;;8.41;97.32813;952.8381;;;;
2019/04/09 04:26:53;;;;;;;77.1;53.3;;;;;;;8.4;96.62793;952.8859;;;;
2019/04/09 04:29:17;;;;;;;83;56.6;;;;;;;8.37;96.54199;952.8719;;;;
2019/04/09 04:36:30;;;;;;;102.1;62.5;;;;;;;8.51;97.31836;952.861;;;;
2019/04/09 04:38:56;;;;;;;99.6;61.4;;;;;;;8.48;97.48438;952.8818;;;;
2019/04/09 04:41:22;;;;;;;62.4;47.1;;;;;;;8.53;96.39355;952.9142;;;;
2019/04/09 04:58:19;;;;;;;94.6;62.7;;;;;;;8.39;97.71875;952.9585;;;;
2019/04/09 05:00:50;;;;;;;84.7;56.1;;;;;;;8.45;97.38672;953.0292;;;;
2019/04/09 05:06:25;;;;;;;86.6;56.9;;;;;;;8.33;96.98145;953.0453;;;;
2019/04/09 05:11:23;;;;;;;95;62.7;;;;;;;8.53;97.37988;953.0505;;;;
2019/04/09 05:16:31;;;;;;;93.4;61.1;;;;;;;8.44;97.46289;953.0261;;;;
2019/04/09 05:23:26;;;;;;;99.4;63.7;;;;;;;8.43;97.40332;953.0947;;;;
2019/04/09 05:28:20;;;;;;;94.9;61.9;;;;;;;8.63;97.23145;953.2349;;;;
2019/04/09 05:30:40;;;;;;;96.8;64.1;;;;;;;8.57;97.02246;953.1475;;;;
2019/04/09 05:33:14;;;;;;;95.3;62.6;;;;;;;8.59;97.26758;953.1203;;;;
2019/04/09 05:35:37;;;;;;;98.9;63.2;;;;;;;8.62;96.40039;953.1808;;;;
2019/04/09 05:37:58;;;;;;;78.6;55.6;;;;;;;8.66;96.89258;953.168;;;;
2019/04/09 05:43:06;;;;;;;87.2;60;;;;;;;8.64;96.37012;953.1618;;;;
2019/04/09 05:50:27;;;;;;;69.6;53;;;;;;;8.68;95.7959;953.2549;;;;
2019/04/09 06:02:42;;;;;;;92;63.7;;;;;;;8.56;96.75586;953.2505;;;;
2019/04/09 06:05:05;;;;;;;87;61.4;;;;;;;8.69;95.99121;953.2541;;;;
2019/04/09 06:09:46;;;;;;;80;57.3;;;;;;;8.55;96.32715;953.2483;;;;
2019/04/09 06:12:12;;;;;;;85.9;58.2;;;;;;;8.56;96.84766;953.17;;;;
2019/04/09 06:14:37;;;;;;;82.5;57.7;;;;;;;8.66;96.27246;953.1719;;;;
2019/04/09 06:17:02;;;;;;;79.5;56.2;;;;;;;8.71;95.97461;953.226;;;;
2019/04/09 06:19:26;;;;;;;101.1;66;;;;;;;8.69;96.30371;953.2364;;;;
2019/04/09 06:21:56;;;;;;;81.3;57.1;;;;;;;8.66;96.30664;953.2141;;;;
2019/04/09 06:24:22;;;;;;;97.8;63.3;;;;;;;8.68;96.19629;953.2382;;;;
2019/04/09 06:26:47;;;;;;;87.6;60.3;;;;;;;8.71;96.08887;953.2219;;;;
2019/04/09 06:29:13;;;;;;;67.9;50.8;;;;;;;8.73;95.93262;953.2068;;;;
2019/04/09 06:31:37;;;;;;;100.8;66.4;;;;;;;8.69;96.31348;953.2029;;;;
2019/04/09 06:34:16;;;;;;;95.6;63.8;;;;;;;8.75;95.74121;953.1325;;;;
2019/04/09 06:36:35;;;;;;;86.5;60.6;;;;;;;8.79;96.11914;953.1108;;;;
2019/04/09 06:41:27;;;;;;;96.3;65.3;;;;;;;8.58;95.60156;953.1889;;;;
2019/04/09 06:43:54;;;;;;;89.8;63;;;;;;;8.66;95.50293;953.1641;;;;
2019/04/09 06:51:25;;;;;;;94;64;;;;;;;8.65;95.39746;953.1649;;;;
2019/04/09 06:58:43;;;;;;;87.6;63.2;;;;;;;8.79;95.56738;953.1922;;;;
2019/04/09 07:03:49;;;;;;;85.1;61.3;;;;;;;8.65;95.24805;953.0923;;;;
2019/04/09 07:06:10;;;;;;;73.4;55.3;;;;;;;8.75;95.03809;953.1245;;;;
2019/04/09 07:08:51;;;;;;;90.9;61.8;;;;;;;8.66;95.51465;953.0865;;;;
2019/04/09 07:14:20;;;;;;;61.9;48.6;;;;;;;9.08;93.22754;953.0919;;;;
2019/04/09 07:16:04;;;;;;;86.5;62.8;;;;;;;9.03;94.02246;953.0595;;;;
2019/04/09 07:18:23;;;;;;;66.2;50.8;;;;;;;9.27;93.42871;953.0676;;;;
2019/04/09 07:20:57;;;;;;;74.4;56;;;;;;;9.22;93.04883;953.0726;;;;
2019/04/09 07:23:19;;;;;;;85.1;61.3;;;;;;;9.18;93.375;953.009;;;;
2019/04/09 07:30:28;;;;;;;81.1;58.7;;;;;;;9.25;93.30957;953.0308;;;;
2019/04/09 07:33:07;;;;;;;65.6;51.8;;;;;;;9.29;93.80273;953.1111;;;;
2019/04/09 07:35:22;;;;;;;74.6;55.6;;;;;;;9.19;93.14844;953.1094;;;;
2019/04/09 07:37:50;;;;;;;86.7;61.4;;;;;;;9.53;93.09375;953.0044;;;;
2019/04/09 07:40:20;;;;;;;68.3;53.1;;;;;;;9.79;92.01074;953.0469;;;;
2019/04/09 07:47:39;;;;;;;71.3;54.1;;;;;;;9.9;91.36328;953.014;;;;
2019/04/09 07:52:28;;;;;;;65.5;54.1;;;;;;;10.04;91.23242;952.9767;;;;
2019/04/09 07:57:18;;;;;;;67.6;53.9;;;;;;;10.54;88.63867;953.0432;;;;
2019/04/09 07:59:46;;;;;;;70.9;56.4;;;;;;;10.53;90.40137;952.9966;;;;
2019/04/09 08:07:06;;;;;;;59.1;49.8;;;;;;;10.88;86.52539;952.9692;;;;
2019/04/09 08:09:31;;;;;;;62.2;51.8;;;;;;;10.84;86.33398;952.9816;;;;
2019/04/09 08:11:58;;;;;;;70.2;57.2;;;;;;;10.69;89.30566;952.9651;;;;
2019/04/09 08:14:32;;;;;;;56.3;49.2;;;;;;;10.88;86.97754;952.9604;;;;
2019/04/09 08:21:51;;;;;;;71.5;57.7;;;;;;;10.39;88.1709;952.9406;;;;
2019/04/09 08:29:10;;;;;;;71.9;58.3;;;;;;;;;;;;;
2019/04/09 08:36:26;;;;;;;80.6;62.8;;;;;;;;;;;;;
2019/04/09 08:38:50;;;;;;;72.8;60.9;;;;;;;;;;;;;
2019/04/09 08:46:05;;;;;;;78.4;64.5;;;;;;;;;;;;;
2019/04/09 08:50:56;;;;;;;78.8;63.7;;;;;;;;;;;;;
2019/04/09 08:53:21;;;;;;;76.5;60.8;;;;;;;;;;;;;
2019/04/09 08:55:51;;;;;;;73.6;60.8;;;;;;;;;;;;;
2019/04/09 08:58:11;;;;;;;74.1;60;;;;;;;;;;;;;
2019/04/09 09:03:00;;;;;;;88;69.1;;;;;;;;;;;;;
2019/04/09 09:05:26;;;;;;;75.9;60.5;;;;;;;;;;;;;
2019/04/09 09:07:50;;;;;;;79.2;64.9;;;;;;;;;;;;;
2019/04/09 09:12:40;;;;;;;83.4;66.3;;;;;;;;;;;;;
2019/04/09 09:19:58;;;;;;;77;65.2;;;;;;;;;;;;;
2019/04/09 09:22:24;;;;;;;85;68.1;;;;;;;;;;;;;
2019/04/09 09:24:52;;;;;;;89.7;71.5;;;;;;;;;;;;;
2019/04/09 09:27:19;;;;;;;90.7;73.8;;;;;;;;;;;;;
2019/04/09 09:34:33;;;;;;;91.6;72.5;;;;;;;;;;;;;
2019/04/09 09:39:23;;;;;;;93.5;75;;;;;;;;;;;;;
2019/04/09 09:41:47;;;;;;;77.2;66.6;;;;;;;;;;;;;
2019/04/09 09:44:19;;;;;;;89.5;74.4;;;;;;;;;;;;;
2019/04/09 09:46:47;;;;;;;83.3;69.7;;;;;;;;;;;;;
2019/04/09 09:53:59;;;;;;;76.4;62.7;;;;;;;;;;;;;
2019/04/09 09:58:50;;;;;;;73.3;63.5;;;;;;;;;;;;;
2019/04/09 10:06:07;;;;;;;72.5;62.6;;;;;;;;;;;;;
2019/04/09 10:08:31;;;;;;;74.7;63.7;;;;;;;;;;;;;
2019/04/09 10:11:04;;;;;;;75.1;61.7;;;;;;;;;;;;;
2019/04/09 10:15:47;;;;;;;78;65;;;;;;;;;;;;;
2019/04/09 10:20:33;;;;;;;81.2;67.4;;;;;;;;;;;;;
2019/04/09 10:25:25;;;;;;;77.7;64.4;;;;;;;;;;;;;
2019/04/09 10:27:52;;;;;;;74.9;63.5;;;;;;;;;;;;;
2019/04/09 10:32:43;;;;;;;69;60.1;;;;;;;;;;;;;
2019/04/09 10:35:06;;;;;;;76.2;62.5;;;;;;;;;;;;;
2019/04/09 10:37:30;;;;;;;77.6;66.2;;;;;;;;;;;;;
2019/04/09 10:39:56;;;;;;;72.8;61.3;;;;;;;;;;;;;
2019/04/09 10:47:13;;;;;;;74.7;64;;;;;;;;;;;;;
2019/04/09 10:49:38;;;;;;;77.7;64.7;;;;;;;;;;;;;
2019/04/09 10:56:51;;;;;;;73.2;63.5;;;;;;;;;;;;;
2019/04/09 10:59:14;;;;;;;77.8;63.8;;;;;;;;;;;;;
2019/04/09 11:09:07;;;;;;;72.8;62.5;;;;;;;;;;;;;
2019/04/09 11:11:24;;;;;;;74.3;61.4;;;;;;;;;;;;;
2019/04/09 11:21:04;;;;;;;74.1;62.7;;;;;;;;;;;;;
2019/04/09 11:23:37;;;;;;;67.9;58.4;;;;;;;;;;;;;
2019/04/09 11:26:06;;;;;;;66;55;;;;;;;;;;;;;
2019/04/09 11:33:09;;;;;;;68.7;59.5;;;;;;;;;;;;;
2019/04/09 11:35:41;;;;;;;71.3;61.7;;;;;;;;;;;;;
2019/04/09 11:38:01;;;;;;;64.4;56.5;;;;;;;;;;;;;
2019/04/09 11:40:23;;;;;;;69.1;59.8;;;;;;;;;;;;;
2019/04/09 11:45:16;;;;;;;55.8;48.7;;;;;;;;;;;;;
2019/04/09 11:52:31;;;;;;;53.2;47.5;;;;;;;;;;;;;
2019/04/09 11:54:58;;;;;;;58.1;49.8;;;;;;;;;;;;;
2019/04/09 11:59:49;;;;;;;58.5;52.1;;;;;;;;;;;;;
2019/04/09 12:02:21;;;;;;;62;52.7;;;;;;;;;;;;;
2019/04/09 12:07:06;;;;;;;60.8;52.1;;;;;;;;;;;;;
2019/04/09 12:09:31;;;;;;;59;52.3;;;;;;;;;;;;;
2019/04/09 12:14:23;;;;;;;59.3;52.1;;;;;;;;;;;;;
2019/04/09 12:16:55;;;;;;;56.3;50.1;;;;;;;;;;;;;
2019/04/09 12:20:11;;;;;;;55.9;49.6;;;;;;;;;;;;;
2019/04/09 12:21:44;;;;;;;53.8;47;;;;;;;;;;;;;
2019/04/09 12:26:34;;;;;;;56.7;49.2;;;;;;;;;;;;;
2019/04/09 12:28:54;;;;;;;54;48.1;;;;;;;;;;;;;
2019/04/09 12:31:18;;;;;;;53.1;47.5;;;;;;;;;;;;;
2019/04/09 12:33:42;;;;;;;53.4;47.7;;;;;;;;;;;;;
2019/04/09 12:36:07;;;;;;;47.5;42.5;;;;;;;;;;;;;
2019/04/09 12:38:44;;;;;;;51.2;45.8;;;;;;;;;;;;;
2019/04/09 12:45:51;;;;;;;50.2;45.1;;;;;;;;;;;;;
2019/04/09 12:50:42;;;;;;;50.5;45.3;;;;;;;;;;;;;
2019/04/09 12:55:30;;;;;;;50.3;45;;;;;;;;;;;;;
2019/04/09 12:57:54;;;;;;;50.7;45.4;;;;;;;;;;;;;
2019/04/09 13:00:27;;;;;;;49.8;44.5;;;;;;;;;;;;;
2019/04/09 13:02:47;;;;;;;49.8;44.5;;;;;;;;;;;;;
2019/04/09 13:05:16;;;;;;;49.1;44.1;;;;;;;;;;;;;
2019/04/09 13:07:41;;;;;;;49;43.9;;;;;;;;;;;;;
2019/04/09 13:12:33;;;;;;;47.9;43;;;;;;;;;;;;;
2019/04/09 13:17:29;;;;;;;46.1;41.4;;;;;;;;;;;;;
2019/04/09 13:19:48;;;;;;;44.9;40.3;;;;;;;;;;;;;
2019/04/09 13:22:17;;;;;;;47.3;42.5;;;;;;;;;;;;;
2019/04/09 13:24:39;;;;;;;45.1;40.3;;;;;;;;;;;;;
2019/04/09 13:27:03;;;;;;;43.4;38.8;;;;;;;;;;;;;
2019/04/09 13:29:32;;;;;;;40.6;36.4;;;;;;;;;;;;;
2019/04/09 13:31:56;;;;;;;41;36.7;;;;;;;;;;;;;
2019/04/09 13:39:17;;;;;;;43.3;38.8;;;;;;;;;;;;;
2019/04/09 13:44:14;;;;;;;41.4;36.9;;;;;;;;;;;;;
2019/04/09 13:47:04;;;;;;;42.6;38;;;;;;;;;;;;;
2019/04/09 13:49:16;;;;;;;41.9;37.5;;;;;;;;;;;;;
2019/04/09 13:51:39;;;;;;;43.5;38.9;;;;;;;;;;;;;
2019/04/09 13:53:57;;;;;;;44.1;39.4;;;;;;;;;;;;;
2019/04/09 13:56:22;;;;;;;44.8;40.1;;;;;;;;;;;;;
2019/04/09 13:58:47;;;;;;;40.9;36.5;;;;;;;;;;;;;
2019/04/09 14:01:13;;;;;;;41.9;37.5;;;;;;;;;;;;;
2019/04/09 14:06:05;;;;;;;42.9;38.2;;;;;;;;;;;;;
2019/04/09 14:08:29;;;;;;;41.6;37.3;;;;;;;;;;;;;
2019/04/09 14:10:54;;;;;;;40;36;;;;;;;;;;;;;
2019/04/09 14:13:20;;;;;;;40;35.9;;;;;;;;;;;;;
2019/04/09 14:15:47;;;;;;;41.4;37.2;;;;;;;;;;;;;
2019/04/09 14:18:11;;;;;;;40.3;36.2;;;;;;;;;;;;;
2019/04/09 14:20:37;;;;;;;40.7;36.5;;;;;;;;;;;;;
2019/04/09 14:23:03;;;;;;;41.8;37.5;;;;;;;;;;;;;
2019/04/09 14:25:27;;;;;;;41.2;36.9;;;;;;;;;;;;;
2019/04/09 14:27:52;;;;;;;40.9;36.6;;;;;;;;;;;;;
2019/04/09 14:30:17;;;;;;;41.1;36.9;;;;;;;;;;;;;
2019/04/09 14:32:43;;;;;;;39.2;35.1;;;;;;;;;;;;;
2019/04/09 14:35:09;;;;;;;40.3;36;;;;;;;;;;;;;
2019/04/09 14:37:34;;;;;;;40.2;35.9;;;;;;;;;;;;;
2019/04/09 14:39:58;;;;;;;39.5;35.3;;;;;;;;;;;;;
2019/04/09 14:42:24;;;;;;;39.1;34.9;;;;;;;;;;;;;
2019/04/09 14:44:48;;;;;;;38.3;34.1;;;;;;;;;;;;;
2019/04/09 14:47:13;;;;;;;40.2;36.1;;;;;;;;;;;;;
2019/04/09 14:49:39;;;;;;;39.8;35.7;;;;;;;;;;;;;
2019/04/09 14:52:06;;;;;;;37.8;34;;;;;;;;;;;;;
2019/04/09 14:54:28;;;;;;;39.6;35.4;;;;;;;;;;;;;
2019/04/09 14:56:54;;;;;;;38.6;34.7;;;;;;;;;;;;;
2019/04/09 14:59:19;;;;;;;39.5;35.5;;;;;;;;;;;;;
2019/04/09 15:01:44;;;;;;;40.4;36.2;;;;;;;;;;;;;
2019/04/09 15:04:10;;;;;;;44.5;39.7;;;;;;;;;;;;;
2019/04/09 15:06:34;;;;;;;46.4;41.4;;;;;;;;;;;;;
2019/04/09 15:08:59;;;;;;;44;39.4;;;;;;;;;;;;;
2019/04/09 15:11:25;;;;;;;43.6;39.1;;;;;;;;;;;;;
2019/04/09 15:13:51;;;;;;;42.6;38.1;;;;;;;;;;;;;
2019/04/09 15:16:15;;;;;;;47;41.9;;;;;;;;;;;;;
2019/04/09 15:18:40;;;;;;;43.6;39;;;;;;;;;;;;;
2019/04/09 15:21:16;;;;;;;46.6;41.6;;;;;;;;;;;;;
2019/04/09 15:23:31;;;;;;;46.3;41.4;;;;;;;;;;;;;
2019/04/09 15:25:56;;;;;;;44.6;39.9;;;;;;;;;;;;;
2019/04/09 15:28:23;;;;;;;48;42.8;;;;;;;;;;;;;
2019/04/09 15:30:47;;;;;;;47.3;42.3;;;;;;;;;;;;;
2019/04/09 15:33:14;;;;;;;46;41.2;;;;;;;;;;;;;
2019/04/09 15:35:39;;;;;;;46.7;41.7;;;;;;;;;;;;;
2019/04/09 15:38:04;;;;;;;46.2;41.3;;;;;;;;;;;;;
2019/04/09 15:40:29;;;;;;;42.8;38.1;;;;;;;;;;;;;
2019/04/09 15:42:56;;;;;;;46;41;;;;;;;;;;;;;
2019/04/09 15:45:20;;;;;;;46.2;41.2;;;;;;;;;;;;;
2019/04/09 15:47:52;;;;;;;45.9;41;;;;;;;;;;;;;
2019/04/09 15:50:16;;;;;;;45.3;40.5;;;;;;;;;;;;;
2019/04/09 15:52:41;;;;;;;46.3;41.3;;;;;;;;;;;;;
2019/04/09 15:55:06;;;;;;;45.4;40.6;;;;;;;;;;;;;
2019/04/09 15:57:32;;;;;;;46.8;41.7;;;;;;;;;;;;;
2019/04/09 16:00:00;;;;;;;45.7;40.8;;;;;;;;;;;;;
2019/04/09 16:02:22;;;;;;;47.3;42.3;;;;;;;;;;;;;
2019/04/09 16:04:55;;;;;;;47.8;42.6;;;;;;;;;;;;;
2019/04/09 16:07:24;;;;;;;49.2;43.9;;;;;;;;;;;;;
2019/04/09 16:09:50;;;;;;;51.3;45.7;;;;;;;;;;;;;
2019/04/09 16:12:20;;;;;;;50.3;44.8;;;;;;;;;;;;;
2019/04/09 16:14:45;;;;;;;50.5;45.1;;;;;;;;;;;;;
2019/04/09 16:17:13;;;;;;;52.4;46.6;;;;;;;;;;;;;
2019/04/09 16:19:38;;;;;;;51.4;45.8;;;;;;;;;;;;;
2019/04/09 16:22:10;;;;;;;53.4;46.5;;;;;;;;;;;;;
2019/04/09 16:24:35;;;;;;;53.9;46.9;;;;;;;;;;;;;
2019/04/09 16:27:03;;;;;;;56;48.6;;;;;;;;;;;;;
2019/04/09 16:29:30;;;;;;;52.9;47.2;;;;;;;;;;;;;
2019/04/09 16:31:54;;;;;;;51.5;46;;;;;;;;;;;;;
2019/04/09 16:34:19;;;;;;;52.8;47.1;;;;;;;;;;;;;
2019/04/09 16:36:45;;;;;;;55.6;49.1;;;;;;;;;;;;;
2019/04/09 16:39:08;;;;;;;55.2;48.9;;;;;;;;;;;;;
2019/04/09 16:41:36;;;;;;;53.6;47.3;;;;;;;;;;;;;
2019/04/09 16:44:04;;;;;;;54.5;47.9;;;;;;;;;;;;;
2019/04/09 16:46:28;;;;;;;54.5;47.1;;;;;;;;;;;;;
2019/04/09 16:48:54;;;;;;;54.1;47.1;;;;;;;;;;;;;
2019/04/09 16:51:18;;;;;;;59;49.3;;;;;;;;;;;;;
2019/04/09 16:53:44;;;;;;;53.8;48;;;;;;;;;;;;;
2019/04/09 16:56:16;;;;;;;55;47.9;;;;;;;;;;;;;
2019/04/09 16:58:45;;;;;;;56.3;48;;;;;;;;;;;;;
2019/04/09 17:01:09;;;;;;;52.7;46.9;;;;;;;;;;;;;
2019/04/09 17:03:41;;;;;;;53.9;48;;;;;;;;;;;;;
2019/04/09 17:06:13;;;;;;;49.6;42.1;;;;;;;;;;;;;
2019/04/09 17:08:38;;;;;;;45.6;40.8;;;;;;;;;;;;;
2019/04/09 17:11:03;;;;;;;48.4;41.1;;;;;;;;;;;;;
2019/04/09 17:13:32;;;;;;;47.5;41.7;;;;;;;;;;;;;
2019/04/09 17:15:57;;;;;;;50.2;43.7;;;;;;;;;;;;;
2019/04/09 17:18:27;;;;;;;52.2;43.5;;;;;;;;;;;;;
2019/04/09 17:20:53;;;;;;;48;42.8;;;;;;;;;;;;;
2019/04/09 17:23:20;;;;;;;49.7;42.6;;;;;;;;;;;;;
2019/04/09 17:25:45;;;;;;;50.4;45;;;;;;;;;;;;;
2019/04/09 17:28:16;;;;;;;42.6;37.9;;;;;;;;;;;;;
2019/04/09 17:30:42;;;;;;;36.7;32.7;;;;;;;;;;;;;
2019/04/09 17:33:05;;;;;;;37.3;33.3;;;;;;;;;;;;;
2019/04/09 17:35:37;;;;;;;34.5;30.9;;;;;;;;;;;;;
2019/04/09 17:38:00;;;;;;;35.4;31.5;;;;;;;;;;;;;
2019/04/09 17:40:26;;;;;;;31.5;27.9;;;;;;;;;;;;;
2019/04/09 17:42:52;;;;;;;30.4;27.1;;;;;;;;;;;;;
2019/04/09 17:45:20;;;;;;;29.2;26.1;;;;;;;;;;;;;
2019/04/09 17:47:46;;;;;;;29;25.5;;;;;;;;;;;;;
2019/04/09 17:50:10;;;;;;;27.8;24.8;;;;;;;;;;;;;
2019/04/09 17:52:35;;;;;;;26.2;22.8;;;;;;;;;;;;;
2019/04/09 17:55:01;;;;;;;28.5;25.4;;;;;;;;;;;;;
2019/04/09 17:57:26;;;;;;;26.9;24.1;;;;;;;;;;;;;
2019/04/09 17:59:51;;;;;;;27;24.1;;;;;;;;;;;;;
2019/04/09 18:02:18;;;;;;;27.5;24.2;;;;;;;;;;;;;
2019/04/09 18:04:42;;;;;;;28;25;;;;;;;;;;;;;
2019/04/09 18:07:10;;;;;;;27.7;24.7;;;;;;;;;;;;;
2019/04/09 18:09:34;;;;;;;28.8;25.3;;;;;;;;;;;;;
2019/04/09 18:12:03;;;;;;;29.3;26.1;;;;;;;;;;;;;
2019/04/09 18:14:28;;;;;;;29.5;26.3;;;;;;;;;;;;;
2019/04/09 18:16:53;;;;;;;34.4;28.2;;;;;;;;;;;;;
2019/04/09 18:19:17;;;;;;;31.2;27.9;;;;;;;;;;;;;
2019/04/09 18:21:44;;;;;;;32;28.6;;;;;;;;;;;;;
2019/04/09 18:24:11;;;;;;;33.9;30.2;;;;;;;;;;;;;
2019/04/09 18:26:39;;;;;;;37.9;33.6;;;;;;;;;;;;;
2019/04/09 18:29:06;;;;;;;41.1;34.7;;;;;;;;;;;;;
2019/04/09 18:31:28;;;;;;;39.6;34.7;;;;;;;;;;;;;
2019/04/09 18:33:55;;;;;;;39.2;34.9;;;;;;;;;;;;;
2019/04/09 18:36:19;;;;;;;36.8;32.9;;;;;;;;;;;;;
2019/04/09 18:38:44;;;;;;;40.5;34.8;;;;;;;;;;;;;
2019/04/09 18:41:10;;;;;;;39.7;35.4;;;;;;;;;;;;;
2019/04/09 18:43:34;;;;;;;41;35;;;;;;;;;;;;;
2019/04/09 18:46:03;;;;;;;47.2;39.6;;;;;;;;;;;;;
2019/04/09 18:48:28;;;;;;;45;40.2;;;;;;;;;;;;;
2019/04/09 18:50:52;;;;;;;46.1;38.9;;;;;;;;;;;;;
2019/04/09 18:53:19;;;;;;;51.2;43.8;;;;;;;;;;;;;
2019/04/09 18:55:43;;;;;;;49.9;43.3;;;;;;;;;;;;;
2019/04/09 18:58:09;;;;;;;50.1;42.7;;;;;;;;;;;;;
2019/04/09 19:00:35;;;;;;;57.1;47.6;;;;;;;;;;;;;
2019/04/09 19:03:00;;;;;;;59.9;49.7;;;;;;;;;;;;;
2019/04/09 19:05:25;;;;;;;62.4;52.4;;;;;;;;;;;;;
2019/04/09 19:07:56;;;;;;;63.9;54;;;;;;;;;;;;;
2019/04/09 19:10:21;;;;;;;67.7;55.7;;;;;;;;;;;;;
2019/04/09 19:12:46;;;;;;;68.2;54.6;;;;;;;;;;;;;
2019/04/09 19:15:13;;;;;;;72;58;;;;;;;;;;;;;
2019/04/09 19:17:37;;;;;;;76.5;62;;;;;;;;;;;;;
2019/04/09 19:20:07;;;;;;;70.7;58.9;;;;;;;;;;;;;
2019/04/09 19:22:31;;;;;;;72.2;58.1;;;;;;;;;;;;;
2019/04/09 19:24:55;;;;;;;69.6;59.6;;;;;;;;;;;;;
2019/04/09 19:27:22;;;;;;;71.3;57.3;;;;;;;;;;;;;
2019/04/09 19:29:46;;;;;;;68.9;58.1;;;;;;;;;;;;;
2019/04/09 19:32:14;;;;;;;63.7;54.3;;;;;;;;;;;;;
2019/04/09 19:34:40;;;;;;;65;52.9;;;;;;;;;;;;;
2019/04/09 19:37:05;;;;;;;66.7;54.7;;;;;;;;;;;;;
2019/04/09 19:39:30;;;;;;;67.7;55.3;;;;;;;;;;;;;
2019/04/09 19:41:57;;;;;;;59;52.2;;;;;;;;;;;;;
2019/04/09 19:44:22;;;;;;;64.2;52.2;;;;;;;;;;;;;
2019/04/09 19:46:46;;;;;;;58.8;49.3;;;;;;;;;;;;;
2019/04/09 19:49:12;;;;;;;61.2;51.3;;;;;;;;;;;;;
2019/04/09 19:51:37;;;;;;;57.3;48.3;;;;;;;;;;;;;
2019/04/09 19:54:04;;;;;;;54.8;48.8;;;;;;;;;;;;;
2019/04/09 19:56:30;;;;;;;55.7;48.1;;;;;;;;;;;;;
2019/04/09 19:58:57;;;;;;;52.9;47.1;;;;;;;;;;;;;
2019/04/09 20:01:22;;;;;;;53.3;46.5;;;;;;;;;;;;;
2019/04/09 20:03:46;;;;;;;52.6;46.4;;;;;;;;;;;;;
2019/04/09 20:06:13;;;;;;;52.8;47;;;;;;;;;;;;;
2019/04/09 20:08:41;;;;;;;52.7;45.7;;;;;;;;;;;;;
2019/04/09 20:11:03;;;;;;;52.5;46.7;;;;;;;;;;;;;
2019/04/09 20:13:30;;;;;;;50.7;45;;;;;;;;;;;;;
2019/04/09 20:15:55;;;;;;;52.5;46.6;;;;;;;;;;;;;
2019/04/09 20:18:21;;;;;;;51.4;45.8;;;;;;;;;;;;;
2019/04/09 20:20:46;;;;;;;52.3;46.6;;;;;;;;;;;;;
2019/04/09 20:23:13;;;;;;;50.4;44.9;;;;;;;;;;;;;
2019/04/09 20:25:37;;;;;;;51.8;46;;;;;;;;;;;;;
2019/04/09 20:28:04;;;;;;;53.2;47.4;;;;;;;;;;;;;
2019/04/09 20:30:29;;;;;;;53.2;46.5;;;;;;;;;;;;;
2019/04/09 20:32:56;;;;;;;53.9;48;;;;;;;;;;;;;
2019/04/09 20:35:22;;;;;;;56.8;49.1;;;;;;;;;;;;;
2019/04/09 20:37:48;;;;;;;55.9;49;;;;;;;;;;;;;
2019/04/09 20:40:14;;;;;;;56.5;50.3;;;;;;;;;;;;;
2019/04/09 20:42:37;;;;;;;55.7;49.2;;;;;;;;;;;;;
2019/04/09 20:45:02;;;;;;;54.8;48.5;;;;;;;;;;;;;
2019/04/09 20:47:29;;;;;;;57.4;51.1;;;;;;;;;;;;;
2019/04/09 20:49:58;;;;;;;56.5;50.3;;;;;;;;;;;;;
2019/04/09 20:52:24;;;;;;;58.7;51.1;;;;;;;;;;;;;
2019/04/09 20:54:55;;;;;;;56.4;50.2;;;;;;;;;;;;;
2019/04/09 20:57:16;;;;;;;57.2;49.2;;;;;;;;;;;;;
2019/04/09 20:59:50;;;;;;;58.9;51.3;;;;;;;;;;;;;
2019/04/09 21:02:18;;;;;;;57.8;50.8;;;;;;;;;;;;;
2019/04/09 21:04:35;;;;;;;61.8;54.8;;;;;;;;;;;;;
2019/04/09 21:06:59;;;;;;;65.1;57.2;;;;;;;;;;;;;
2019/04/09 21:09:24;;;;;;;68.7;59.8;;;;;;;;;;;;;
2019/04/09 21:11:50;;;;;;;81.6;67.7;;;;;;;;;;;;;
2019/04/09 21:14:15;;;;;;;73.6;64.1;;;;;;;;;;;;;
2019/04/09 21:16:42;;;;;;;76.2;65.2;;;;;;;;;;;;;
2019/04/09 21:19:07;;;;;;;73.8;61.9;;;;;;;;;;;;;
2019/04/09 21:21:32;;;;;;;73.7;63;;;;;;;;;;;;;
2019/04/09 21:23:57;;;;;;;72.1;62.7;;;;;;;;;;;;;
2019/04/09 21:26:23;;;;;;;73.5;61.2;;;;;;;;;;;;;
2019/04/09 21:28:47;;;;;;;79.2;66.9;;;;;;;;;;;;;
2019/04/09 21:31:13;;;;;;;81.6;67.2;;;;;;;;;;;;;
2019/04/09 21:33:38;;;;;;;77.1;63.6;;;;;;;;;;;;;
2019/04/09 21:36:02;;;;;;;73.4;60.4;;;;;;;;;;;;;
2019/04/09 21:38:28;;;;;;;66.9;59.2;;;;;;;;;;;;;
2019/04/09 21:40:54;;;;;;;70.3;60.5;;;;;;;;;;;;;
2019/04/09 21:43:20;;;;;;;75.3;62.6;;;;;;;;;;;;;
2019/04/09 21:45:45;;;;;;;76.3;63.9;;;;;;;;;;;;;
2019/04/09 21:48:14;;;;;;;78.4;65.4;;;;;;;;;;;;;
2019/04/09 21:50:38;;;;;;;85;68.6;;;;;;;;;;;;;
2019/04/09 21:53:04;;;;;;;79.3;65.9;;;;;;;;;;;;;
2019/04/09 21:55:29;;;;;;;73.1;61.8;;;;;;;;;;;;;
2019/04/09 21:57:59;;;;;;;75.8;64.2;;;;;;;;;;;;;
2019/04/09 22:00:29;;;;;;;76.2;64.5;;;;;;;;;;;;;
2019/04/09 22:02:48;;;;;;;84.2;69.7;;;;;;;;;;;;;
2019/04/09 22:05:13;;;;;;;80.1;65;;;;;;;;;;;;;
2019/04/09 22:07:39;;;;;;;66.5;57.9;;;;;;;;;;;;;
2019/04/09 22:10:03;;;;;;;68.3;59.8;;;;;;;;;;;;;
2019/04/09 22:12:28;;;;;;;69.5;60.8;;;;;;;;;;;;;
2019/04/09 22:14:54;;;;;;;74.6;63.4;;;;;;;;;;;;;
2019/04/09 22:17:18;;;;;;;73;62.1;;;;;;;;;;;;;
2019/04/09 22:19:45;;;;;;;88.3;68.5;;;;;;;;;;;;;
2019/04/09 22:22:11;;;;;;;78;63.7;;;;;;;;;;;;;
2019/04/09 22:24:39;;;;;;;69.9;59.9;;;;;;;;;;;;;
2019/04/09 22:27:01;;;;;;;74.1;61.7;;;;;;;;;;;;;
2019/04/09 22:29:27;;;;;;;78.4;65;;;;;;;;;;;;;
2019/04/09 22:31:52;;;;;;;77.8;64.5;;;;;;;;;;;;;
2019/04/09 22:34:22;;;;;;;81.2;65.7;;;;;;;;;;;;;
2019/04/09 22:36:48;;;;;;;72;61.9;;;;;;;;;;;;;
2019/04/09 22:39:15;;;;;;;82.9;66.8;;;;;;;;;;;;;
2019/04/09 22:41:39;;;;;;;86.2;70.3;;;;;;;;;;;;;
2019/04/09 22:44:04;;;;;;;91.4;72.5;;;;;;;;;;;;;
2019/04/09 22:46:29;;;;;;;92;74.8;;;;;;;;;;;;;
2019/04/09 22:48:52;;;;;;;78;65.5;;;;;;;;;;;;;
2019/04/09 22:51:18;;;;;;;87;73.1;;;;;;;;;;;;;
2019/04/09 22:53:43;;;;;;;108.3;82.5;;;;;;;;;;;;;
2019/04/09 22:56:11;;;;;;;95.7;76.5;;;;;;;;;;;;;
2019/04/09 22:58:36;;;;;;;95.2;73.7;;;;;;;;;;;;;